createdAt,value
2023-04-19T00:00:09.222Z,100363.00
2023-04-19T00:02:42.852Z,100362.00
2023-04-19T00:05:11.946Z,100357.00
2023-04-19T00:07:40.414Z,100354.00
2023-04-19T00:10:11.857Z,100353.00
2023-04-19T00:12:39.701Z,100349.00
2023-04-19T00:15:09.087Z,100362.00
2023-04-19T00:17:37.654Z,100349.00
2023-04-19T00:20:08.371Z,100350.00
2023-04-19T00:22:36.325Z,100347.00
2023-04-19T00:25:04.636Z,100323.00
2023-04-19T00:27:32.608Z,100342.00
2023-04-19T00:30:01.715Z,100324.00
2023-04-19T00:32:29.707Z,100339.00
2023-04-19T00:34:58.862Z,100332.00
2023-04-19T00:37:28.086Z,100335.00
2023-04-19T00:39:55.956Z,100326.00
2023-04-19T00:42:23.868Z,100340.00
2023-04-19T00:44:51.757Z,100346.00
2023-04-19T00:47:19.737Z,100335.00
2023-04-19T00:49:47.917Z,100334.00
2023-04-19T00:52:17.641Z,100340.00
2023-04-19T00:54:47.302Z,100336.00
2023-04-19T00:57:16.596Z,100324.00
2023-04-19T00:59:44.780Z,100322.00
2023-04-19T01:02:12.813Z,100311.00
2023-04-19T01:04:41.123Z,100314.00
2023-04-19T01:07:09.769Z,100312.00
2023-04-19T01:09:41.959Z,100312.00
2023-04-19T01:12:11.144Z,100311.00
2023-04-19T01:14:39.051Z,100316.00
2023-04-19T01:17:08.438Z,100316.00
2023-04-19T01:19:38.594Z,100313.00
2023-04-19T01:22:06.947Z,100309.00
2023-04-19T01:24:36.270Z,100310.00
2023-04-19T01:27:04.177Z,100310.00
2023-04-19T01:29:32.057Z,100301.00
2023-04-19T01:31:59.922Z,100308.00
2023-04-19T01:34:28.387Z,100311.00
2023-04-19T01:36:56.239Z,100301.00
2023-04-19T01:39:27.272Z,100301.00
2023-04-19T01:41:56.492Z,100303.00
2023-04-19T01:44:24.667Z,100301.00
2023-04-19T01:46:52.551Z,100308.00
2023-04-19T01:49:20.508Z,100303.00
2023-04-19T01:51:50.057Z,100304.00
2023-04-19T01:54:18.169Z,100299.00
2023-04-19T01:56:46.182Z,100296.00
2023-04-19T01:59:15.680Z,100296.00
2023-04-19T02:01:43.782Z,100295.00
2023-04-19T02:04:11.707Z,100299.00
2023-04-19T02:06:39.678Z,100297.00
2023-04-19T02:09:08.236Z,100300.00
2023-04-19T02:11:36.097Z,100291.00
2023-04-19T02:14:03.984Z,100300.00
2023-04-19T02:16:35.851Z,100301.00
2023-04-19T02:19:04.301Z,100300.00
2023-04-19T02:21:32.736Z,100294.00
2023-04-19T02:24:01.106Z,100298.00
2023-04-19T02:26:29.062Z,100287.00
2023-04-19T02:28:56.964Z,100286.00
2023-04-19T02:31:24.932Z,100293.00
2023-04-19T02:33:54.214Z,100289.00
2023-04-19T02:36:22.298Z,100291.00
2023-04-19T02:38:50.225Z,100294.00
2023-04-19T02:41:18.115Z,100287.00
2023-04-19T02:43:45.979Z,100289.00
2023-04-19T02:46:14.449Z,100287.00
2023-04-19T02:48:42.396Z,100289.00
2023-04-19T02:51:17.368Z,100286.00
2023-04-19T02:53:45.379Z,100283.00
2023-04-19T02:56:13.349Z,100275.00
2023-04-19T02:58:41.253Z,100276.00
2023-04-19T03:01:10.007Z,100268.00
2023-04-19T03:03:38.105Z,100270.00
2023-04-19T03:06:06.519Z,100271.00
2023-04-19T03:08:36.219Z,100272.00
2023-04-19T03:11:04.137Z,100266.00
2023-04-19T03:13:32.372Z,100261.00
2023-04-19T03:16:00.539Z,100253.00
2023-04-19T03:18:29.729Z,100266.00
2023-04-19T03:20:59.111Z,100255.00
2023-04-19T03:23:30.965Z,100268.00
2023-04-19T03:26:02.638Z,100258.00
2023-04-19T03:28:41.559Z,100258.00
2023-04-19T03:31:17.575Z,100257.00
2023-04-19T03:33:47.888Z,100251.00
2023-04-19T03:36:16.081Z,100253.00
2023-04-19T03:38:46.408Z,100244.00
2023-04-19T03:41:27.142Z,100240.00
2023-04-19T03:44:04.045Z,100239.00
2023-04-19T03:46:32.352Z,100243.00
2023-04-19T03:49:00.935Z,100233.00
2023-04-19T03:51:29.983Z,100239.00
2023-04-19T03:53:57.998Z,100234.00
2023-04-19T03:56:27.288Z,100228.00
2023-04-19T03:58:55.611Z,100221.00
2023-04-19T04:01:25.354Z,100232.00
2023-04-19T04:03:54.481Z,100226.00
2023-04-19T04:06:22.934Z,100235.00
2023-04-19T04:08:50.976Z,100228.00
2023-04-19T04:11:18.997Z,100221.00
2023-04-19T04:13:50.935Z,100222.00
2023-04-19T04:16:23.172Z,100222.00
2023-04-19T04:18:52.518Z,100230.00
2023-04-19T04:21:21.486Z,100216.00
2023-04-19T04:23:49.734Z,100233.00
2023-04-19T04:26:30.610Z,100237.00
2023-04-19T04:29:10.496Z,100237.00
2023-04-19T04:31:40.874Z,100237.00
2023-04-19T04:34:09.878Z,100234.00
2023-04-19T04:36:43.747Z,100245.00
2023-04-19T04:39:12.396Z,100236.00
2023-04-19T04:41:42.101Z,100245.00
2023-04-19T04:44:13.096Z,100228.00
2023-04-19T04:46:42.941Z,100243.00
2023-04-19T04:49:13.814Z,100243.00
2023-04-19T04:51:43.471Z,100243.00
2023-04-19T04:54:11.743Z,100249.00
2023-04-19T04:56:39.979Z,100244.00
2023-04-19T04:59:08.253Z,100239.00
2023-04-19T05:01:41.474Z,100241.00
2023-04-19T05:04:09.782Z,100247.00
2023-04-19T05:06:40.742Z,100237.00
2023-04-19T05:09:10.365Z,100248.00
2023-04-19T05:11:38.590Z,100241.00
2023-04-19T05:14:06.840Z,100243.00
2023-04-19T05:16:35.237Z,100242.00
2023-04-19T05:19:05.854Z,100247.00
2023-04-19T05:21:39.873Z,100232.00
2023-04-19T05:24:10.711Z,100237.00
2023-04-19T05:26:39.545Z,100237.00
2023-04-19T05:29:08.531Z,100248.00
2023-04-19T05:31:44.687Z,100236.00
2023-04-19T05:34:24.120Z,100248.00
2023-04-19T05:36:52.450Z,100244.00
2023-04-19T05:39:20.580Z,100231.00
2023-04-19T05:41:48.969Z,100236.00
2023-04-19T05:44:17.278Z,100229.00
2023-04-19T05:46:45.415Z,100230.00
2023-04-19T05:49:17.110Z,100248.00
2023-04-19T05:52:01.969Z,100245.00
2023-04-19T05:54:56.402Z,100236.00
2023-04-19T05:57:24.321Z,100239.00
2023-04-19T05:59:52.386Z,100237.00
2023-04-19T06:02:24.458Z,100238.00
2023-04-19T06:04:52.561Z,100233.00
2023-04-19T06:07:31.662Z,100228.00
2023-04-19T06:10:01.991Z,100228.00
2023-04-19T06:12:29.936Z,100235.00
2023-04-19T06:14:57.808Z,100233.00
2023-04-19T06:17:26.823Z,100225.00
2023-04-19T06:19:55.902Z,100225.00
2023-04-19T06:22:25.142Z,100223.00
2023-04-19T06:24:53.068Z,100222.00
2023-04-19T06:27:21.007Z,100230.00
2023-04-19T06:29:51.032Z,100230.00
2023-04-19T06:32:19.188Z,100232.00
2023-04-19T06:34:47.071Z,100241.00
2023-04-19T06:37:14.974Z,100234.00
2023-04-19T06:39:44.205Z,100241.00
2023-04-19T06:42:12.365Z,100240.00
2023-04-19T06:44:40.215Z,100232.00
2023-04-19T06:47:08.078Z,100237.00
2023-04-19T06:49:35.999Z,100222.00
2023-04-19T06:52:03.868Z,100223.00
2023-04-19T06:54:32.408Z,100217.00
2023-04-19T06:57:02.351Z,100229.00
2023-04-19T06:59:32.245Z,100231.00
2023-04-19T07:02:00.305Z,100224.00
2023-04-19T07:04:28.492Z,100235.00
2023-04-19T07:06:56.475Z,100220.00
2023-04-19T07:09:24.391Z,100227.00
2023-04-19T07:11:52.331Z,100214.00
2023-04-19T07:14:21.782Z,100212.00
2023-04-19T07:16:50.840Z,100209.00
2023-04-19T07:19:20.665Z,100205.00
2023-04-19T07:21:48.553Z,100205.00
2023-04-19T07:24:17.452Z,100209.00
2023-04-19T07:26:45.602Z,100203.00
2023-04-19T07:29:13.515Z,100207.00
2023-04-19T07:31:43.093Z,100207.00
2023-04-19T07:34:11.071Z,100207.00
2023-04-19T07:36:39.077Z,100203.00
2023-04-19T07:39:06.976Z,100203.00
2023-04-19T07:41:36.075Z,100202.00
2023-04-19T07:44:04.352Z,100190.00
2023-04-19T07:46:32.396Z,100205.00
2023-04-19T07:49:01.659Z,100209.00
2023-04-19T07:51:29.681Z,100193.00
2023-04-19T07:53:57.602Z,100194.00
2023-04-19T07:56:26.802Z,100194.00
2023-04-19T07:59:06.992Z,100193.00
2023-04-19T08:01:36.963Z,100198.00
2023-04-19T08:04:06.742Z,100193.00
2023-04-19T08:06:34.846Z,100202.00
2023-04-19T08:09:03.001Z,100193.00
2023-04-19T08:11:31.157Z,100191.00
2023-04-19T08:14:09.182Z,100199.00
2023-04-19T08:17:21.280Z,100186.00
2023-04-19T08:19:32.360Z,100186.00
2023-04-19T08:22:00.490Z,100177.00
2023-04-19T08:24:28.644Z,100174.00
2023-04-19T08:26:58.797Z,100185.00
2023-04-19T08:29:27.826Z,100175.00
2023-04-19T08:31:55.839Z,100170.00
2023-04-19T08:34:23.746Z,100169.00
2023-04-19T08:37:03.595Z,100181.00
2023-04-19T08:39:33.981Z,100172.00
2023-04-19T08:42:13.330Z,100172.00
2023-04-19T08:45:23.486Z,100165.00
2023-04-19T08:47:58.635Z,100170.00
2023-04-19T08:50:34.604Z,100162.00
2023-04-19T08:55:59.296Z,100159.00
2023-04-19T08:58:52.064Z,100152.00
2023-04-19T09:04:03.311Z,100159.00
2023-04-19T09:06:39.175Z,100147.00
2023-04-19T09:09:34.024Z,100138.00
2023-04-19T09:12:03.796Z,100139.00
2023-04-19T09:14:31.747Z,100136.00
2023-04-19T09:17:17.457Z,100144.00
2023-04-19T09:19:50.156Z,100128.00
2023-04-19T09:22:19.455Z,100129.00
2023-04-19T09:27:28.847Z,100121.00
2023-04-19T09:29:58.651Z,100109.00
2023-04-19T09:32:28.472Z,100120.00
2023-04-19T09:34:58.550Z,100108.00
2023-04-19T09:37:56.669Z,100106.00
2023-04-19T09:40:27.725Z,100107.00
2023-04-19T09:45:30.486Z,100099.00
2023-04-19T09:48:04.190Z,100097.00
2023-04-19T09:50:33.729Z,100102.00
2023-04-19T09:53:07.665Z,100090.00
2023-04-19T09:55:48.988Z,100078.00
2023-04-19T09:58:29.378Z,100089.00
2023-04-19T10:01:14.299Z,100079.00
2023-04-19T10:03:46.865Z,100083.00
2023-04-19T10:06:32.165Z,100086.00
2023-04-19T10:09:07.049Z,100090.00
2023-04-19T10:11:39.353Z,100084.00
2023-04-19T10:14:09.827Z,100064.00
2023-04-19T10:16:40.052Z,100061.00
2023-04-19T10:19:12.007Z,100070.00
2023-04-19T10:21:43.125Z,100054.00
2023-04-19T10:24:14.026Z,100042.00
2023-04-19T10:27:11.410Z,100055.00
2023-04-19T10:30:01.142Z,100048.00
2023-04-19T10:32:30.759Z,100056.00
2023-04-19T10:35:04.197Z,100052.00
2023-04-19T10:37:33.261Z,100060.00
2023-04-19T10:40:01.587Z,100042.00
2023-04-19T10:43:17.648Z,100048.00
2023-04-19T10:45:46.326Z,100037.00
2023-04-19T10:48:53.518Z,100045.00
2023-04-19T10:51:23.782Z,100026.00
2023-04-19T10:54:00.459Z,100034.00
2023-04-19T10:57:04.507Z,100032.00
2023-04-19T10:59:34.868Z,100016.00
2023-04-19T11:02:04.775Z,100017.00
2023-04-19T11:05:02.054Z,100019.00
2023-04-19T11:07:37.175Z,100019.00
2023-04-19T11:10:06.635Z,100015.00
2023-04-19T11:12:35.745Z,100023.00
2023-04-19T11:15:09.396Z,99997.00
2023-04-19T11:17:39.488Z,99997.00
2023-04-19T11:20:10.795Z,100006.00
2023-04-19T11:22:40.947Z,100004.00
2023-04-19T11:25:12.040Z,100006.00
2023-04-19T11:27:40.919Z,99993.00
2023-04-19T11:30:13.380Z,99988.00
2023-04-19T11:32:48.259Z,99982.00
2023-04-19T11:35:19.714Z,99992.00
2023-04-19T11:37:47.655Z,99984.00
2023-04-19T11:40:17.542Z,99995.00
2023-04-19T11:42:46.520Z,99983.00
2023-04-19T11:45:31.160Z,99966.00
2023-04-19T11:48:00.914Z,99983.00
2023-04-19T11:50:37.936Z,99988.00
2023-04-19T11:53:13.931Z,99972.00
2023-04-19T11:55:45.312Z,99974.00
2023-04-19T11:58:26.315Z,99983.00
2023-04-19T12:00:55.930Z,99966.00
2023-04-19T12:03:26.458Z,99968.00
2023-04-19T12:05:59.640Z,99957.00
2023-04-19T12:08:36.170Z,99954.00
2023-04-19T12:11:06.330Z,99957.00
2023-04-19T12:13:36.338Z,99951.00
2023-04-19T12:16:06.714Z,99961.00
2023-04-19T12:18:45.914Z,99975.00
2023-04-19T12:21:27.339Z,99969.00
2023-04-19T12:23:57.545Z,99965.00
2023-04-19T12:26:25.778Z,99965.00
2023-04-19T12:28:54.723Z,99968.00
2023-04-19T12:31:24.015Z,99966.00
2023-04-19T12:33:52.052Z,99968.00
2023-04-19T12:36:20.124Z,99955.00
2023-04-19T12:38:48.251Z,99951.00
2023-04-19T12:41:16.120Z,99949.00
2023-04-19T12:43:43.953Z,99952.00
2023-04-19T12:46:11.842Z,99952.00
2023-04-19T12:48:41.072Z,99944.00
2023-04-19T12:51:10.418Z,99948.00
2023-04-19T12:53:38.235Z,99935.00
2023-04-19T12:56:07.565Z,99929.00
2023-04-19T12:58:35.559Z,99923.00
2023-04-19T13:01:03.490Z,99928.00
2023-04-19T13:03:33.172Z,99918.00
2023-04-19T13:06:02.840Z,99922.00
2023-04-19T13:08:44.113Z,99925.00
2023-04-19T13:11:14.895Z,99924.00
2023-04-19T13:13:42.770Z,99923.00
2023-04-19T13:16:11.057Z,99915.00
2023-04-19T13:18:39.027Z,99920.00
2023-04-19T13:21:08.735Z,99915.00
2023-04-19T13:23:36.882Z,99911.00
2023-04-19T13:26:05.317Z,99938.00
2023-04-19T13:28:35.598Z,99949.00
2023-04-19T13:31:05.274Z,99938.00
2023-04-19T13:33:33.357Z,99920.00
2023-04-19T13:36:01.557Z,99918.00
2023-04-19T13:38:30.889Z,99912.00
2023-04-19T13:40:58.849Z,99904.00
2023-04-19T13:43:26.877Z,99906.00
2023-04-19T13:45:54.939Z,99880.00
2023-04-19T13:48:22.984Z,99890.00
2023-04-19T13:50:52.401Z,99866.00
2023-04-19T13:53:20.322Z,99874.00
2023-04-19T13:55:49.841Z,99873.00
2023-04-19T13:58:17.805Z,99888.00
2023-04-19T14:00:46.137Z,99853.00
2023-04-19T14:03:14.156Z,99946.00
2023-04-19T14:05:42.176Z,99894.00
2023-04-19T14:08:10.166Z,99898.00
2023-04-19T14:10:38.161Z,99889.00
2023-04-19T14:13:07.561Z,99895.00
2023-04-19T14:15:35.459Z,99898.00
2023-04-19T14:18:03.991Z,99892.00
2023-04-19T14:20:32.031Z,99895.00
2023-04-19T14:23:00.294Z,99886.00
2023-04-19T14:25:28.550Z,99888.00
2023-04-19T14:27:56.395Z,99888.00
2023-04-19T14:30:26.405Z,99878.00
2023-04-19T14:32:54.565Z,99880.00
2023-04-19T14:35:22.849Z,99874.00
2023-04-19T14:37:50.728Z,99872.00
2023-04-19T14:40:20.528Z,99875.00
2023-04-19T14:42:48.510Z,99885.00
2023-04-19T14:45:16.563Z,99876.00
2023-04-19T14:47:45.893Z,99872.00
2023-04-19T14:50:13.783Z,99876.00
2023-04-19T14:52:41.734Z,99890.00
2023-04-19T14:55:11.644Z,99904.00
2023-04-19T14:57:39.666Z,99866.00
2023-04-19T15:00:09.478Z,99896.00
2023-04-19T15:02:37.881Z,99892.00
2023-04-19T15:05:08.535Z,99887.00
2023-04-19T15:07:36.581Z,99888.00
2023-04-19T15:10:04.899Z,99888.00
2023-04-19T15:12:32.759Z,99903.00
2023-04-19T15:15:00.888Z,99903.00
2023-04-19T15:17:28.763Z,99894.00
2023-04-19T15:19:56.659Z,99896.00
2023-04-19T15:22:26.289Z,99890.00
2023-04-19T15:24:54.171Z,99884.00
2023-04-19T15:27:22.040Z,99880.00
2023-04-19T15:29:49.926Z,99892.00
2023-04-19T15:32:17.867Z,99904.00
2023-04-19T15:34:45.750Z,99899.00
2023-04-19T15:37:13.758Z,99917.00
2023-04-19T15:39:43.544Z,99922.00
2023-04-19T15:42:11.499Z,99930.00
2023-04-19T15:44:39.338Z,99934.00
2023-04-19T15:47:07.209Z,99923.00
2023-04-19T15:49:35.040Z,99918.00
2023-04-19T15:52:02.884Z,99919.00
2023-04-19T15:54:30.800Z,99911.00
2023-04-19T15:56:59.996Z,99901.00
2023-04-19T15:59:27.907Z,99901.00
2023-04-19T16:01:55.927Z,99912.00
2023-04-19T16:04:24.146Z,99922.00
2023-04-19T16:06:52.196Z,99909.00
2023-04-19T16:09:20.201Z,99925.00
2023-04-19T16:11:48.158Z,99905.00
2023-04-19T16:14:17.480Z,99911.00
2023-04-19T16:16:45.392Z,99906.00
2023-04-19T16:19:13.305Z,99896.00
2023-04-19T16:21:41.357Z,99890.00
2023-04-19T16:24:09.256Z,99898.00
2023-04-19T16:26:37.125Z,99897.00
2023-04-19T16:29:05.321Z,99872.00
2023-04-19T16:31:35.652Z,99891.00
2023-04-19T16:34:03.627Z,99885.00
2023-04-19T16:36:31.908Z,99889.00
2023-04-19T16:39:00.778Z,99882.00
2023-04-19T16:41:28.649Z,99882.00
2023-04-19T16:43:56.553Z,99876.00
2023-04-19T16:46:24.653Z,99881.00
2023-04-19T16:48:53.850Z,99880.00
2023-04-19T16:51:22.481Z,99876.00
2023-04-19T16:53:50.387Z,99862.00
2023-04-19T16:56:19.356Z,99871.00
2023-04-19T16:58:47.614Z,99867.00
2023-04-19T17:01:16.080Z,99863.00
2023-04-19T17:03:44.146Z,99866.00
2023-04-19T17:06:13.437Z,99865.00
2023-04-19T17:08:41.495Z,99855.00
2023-04-19T17:11:09.368Z,99855.00
2023-04-19T17:13:37.657Z,99857.00
2023-04-19T17:16:06.774Z,99854.00
2023-04-19T17:18:34.662Z,99851.00
2023-04-19T17:21:02.988Z,99851.00
2023-04-19T17:23:32.170Z,99848.00
2023-04-19T17:26:00.078Z,99842.00
2023-04-19T17:28:28.289Z,99854.00
2023-04-19T17:30:56.457Z,99854.00
2023-04-19T17:33:24.423Z,99846.00
2023-04-19T17:35:52.302Z,99851.00
2023-04-19T17:38:20.246Z,99855.00
2023-04-19T17:40:49.571Z,99853.00
2023-04-19T17:43:17.518Z,99850.00
2023-04-19T17:45:45.430Z,99853.00
2023-04-19T17:48:13.424Z,99851.00
2023-04-19T17:50:41.385Z,99849.00
2023-04-19T17:53:09.346Z,99848.00
2023-04-19T17:55:37.248Z,99851.00
2023-04-19T17:58:06.842Z,99849.00
2023-04-19T18:00:34.723Z,99845.00
2023-04-19T18:03:02.728Z,99851.00
2023-04-19T18:05:30.860Z,99853.00
2023-04-19T18:07:58.756Z,99848.00
2023-04-19T18:10:26.807Z,99846.00
2023-04-19T18:12:54.769Z,99850.00
2023-04-19T18:15:24.127Z,99850.00
2023-04-19T18:17:52.255Z,99848.00
2023-04-19T18:20:21.467Z,99851.00
2023-04-19T18:22:51.051Z,99858.00
2023-04-19T18:25:19.822Z,99851.00
2023-04-19T18:27:47.806Z,99850.00
2023-04-19T18:30:16.501Z,99842.00
2023-04-19T18:32:45.776Z,99851.00
2023-04-19T18:35:13.890Z,99846.00
2023-04-19T18:37:41.891Z,99846.00
2023-04-19T18:40:12.356Z,99840.00
2023-04-19T18:42:40.715Z,99842.00
2023-04-19T18:45:10.653Z,99846.00
2023-04-19T18:47:38.621Z,99845.00
2023-04-19T18:50:09.999Z,99847.00
2023-04-19T18:52:38.452Z,99840.00
2023-04-19T18:55:07.852Z,99840.00
2023-04-19T18:57:35.928Z,99836.00
2023-04-19T19:00:06.283Z,99836.00
2023-04-19T19:02:36.981Z,99839.00
2023-04-19T19:05:08.674Z,99837.00
2023-04-19T19:07:38.089Z,99835.00
2023-04-19T19:12:40.786Z,99848.00
2023-04-19T19:15:10.164Z,99850.00
2023-04-19T19:17:38.523Z,99849.00
2023-04-19T19:20:10.483Z,99838.00
2023-04-19T19:22:38.449Z,99847.00
2023-04-19T19:25:07.978Z,99846.00
2023-04-19T19:27:35.946Z,99841.00
2023-04-19T19:30:04.888Z,99846.00
2023-04-19T19:32:32.907Z,99836.00
2023-04-19T19:35:05.345Z,99846.00
2023-04-19T19:37:37.628Z,99846.00
2023-04-19T19:40:10.744Z,99840.00
2023-04-19T19:42:40.514Z,99835.00
2023-04-19T19:45:10.784Z,99829.00
2023-04-19T19:47:44.569Z,99841.00
2023-04-19T19:51:00.889Z,99839.00
2023-04-19T19:53:03.426Z,99827.00
2023-04-19T19:55:31.363Z,99827.00
2023-04-19T20:03:01.788Z,99829.00
2023-04-19T20:05:30.622Z,99820.00
2023-04-19T20:08:12.649Z,99832.00
2023-04-19T20:10:44.107Z,99831.00
2023-04-19T20:13:13.147Z,99827.00
2023-04-19T20:15:41.888Z,99823.00
2023-04-19T20:18:09.822Z,99824.00
2023-04-19T20:20:38.015Z,99822.00
2023-04-19T20:23:06.558Z,99823.00
2023-04-19T20:25:35.889Z,99821.00
2023-04-19T20:28:04.743Z,99812.00
2023-04-19T20:30:33.016Z,99818.00
2023-04-19T20:33:01.129Z,99826.00
2023-04-19T20:35:29.438Z,99820.00
2023-04-19T20:38:02.434Z,99812.00
2023-04-19T20:40:33.264Z,99823.00
2023-04-19T20:43:02.651Z,99810.00
2023-04-19T20:45:31.307Z,99823.00
2023-04-19T20:47:59.605Z,99825.00
2023-04-19T20:50:27.828Z,99819.00
2023-04-19T20:52:56.603Z,99823.00
2023-04-19T20:55:25.165Z,99818.00
2023-04-19T20:57:53.258Z,99817.00
2023-04-19T21:00:22.727Z,99819.00
2023-04-19T21:02:50.764Z,99813.00
2023-04-19T21:05:18.842Z,99809.00
2023-04-19T21:07:46.780Z,99811.00
2023-04-19T21:10:16.369Z,99811.00
2023-04-19T21:12:44.634Z,99809.00
2023-04-19T21:15:13.003Z,99818.00
2023-04-19T21:17:42.686Z,99813.00
2023-04-19T21:20:14.122Z,99807.00
2023-04-19T21:22:44.057Z,99817.00
2023-04-19T21:25:13.227Z,99821.00
2023-04-19T21:27:42.964Z,99827.00
2023-04-19T21:30:13.273Z,99813.00
2023-04-19T21:32:42.725Z,99825.00
2023-04-19T21:35:11.513Z,99823.00
2023-04-19T21:37:39.543Z,99817.00
2023-04-19T21:40:09.821Z,99822.00
2023-04-19T21:42:38.685Z,99813.00
2023-04-19T21:45:08.432Z,99825.00
2023-04-19T21:47:36.402Z,99812.00
2023-04-19T21:50:07.234Z,99821.00
2023-04-19T21:52:35.397Z,99825.00
2023-04-19T21:55:03.417Z,99832.00
2023-04-19T21:57:31.388Z,99821.00
2023-04-19T21:59:59.325Z,99821.00
2023-04-19T22:02:27.421Z,99823.00
2023-04-19T22:04:55.394Z,99825.00
2023-04-19T22:07:24.678Z,99826.00
2023-04-19T22:09:54.285Z,99821.00
2023-04-19T22:12:22.209Z,99826.00
2023-04-19T22:14:50.397Z,99825.00
2023-04-19T22:17:19.416Z,99819.00
2023-04-19T22:19:47.638Z,99826.00
2023-04-19T22:22:15.942Z,99825.00
2023-04-19T22:24:56.866Z,99821.00
2023-04-19T22:27:25.671Z,99819.00
2023-04-19T22:29:54.492Z,99825.00
2023-04-19T22:32:22.813Z,99818.00
2023-04-19T22:34:50.966Z,99813.00
2023-04-19T22:37:18.893Z,99820.00
2023-04-19T22:39:48.215Z,99821.00
2023-04-19T22:42:16.168Z,99810.00
2023-04-19T22:44:44.041Z,99810.00
2023-04-19T22:47:13.134Z,99812.00
2023-04-19T22:49:43.055Z,99819.00
2023-04-19T22:52:11.615Z,99809.00
2023-04-19T22:54:39.610Z,99820.00
2023-04-19T22:57:08.791Z,99807.00
2023-04-19T22:59:36.683Z,99812.00
2023-04-19T23:02:04.818Z,99805.00
2023-04-19T23:04:35.517Z,99804.00
2023-04-19T23:07:04.778Z,99817.00
2023-04-19T23:09:32.722Z,99810.00
2023-04-19T23:12:00.783Z,99806.00
2023-04-19T23:14:30.125Z,99810.00
2023-04-19T23:16:59.028Z,99803.00
2023-04-19T23:19:26.969Z,99806.00
2023-04-19T23:21:54.863Z,99804.00
2023-04-19T23:24:22.731Z,99789.00
2023-04-19T23:26:51.059Z,99794.00
2023-04-19T23:29:19.157Z,99803.00
2023-04-19T23:31:48.566Z,99808.00
2023-04-19T23:34:16.621Z,99804.00
2023-04-19T23:36:44.598Z,99797.00
2023-04-19T23:39:12.819Z,99791.00
2023-04-19T23:41:40.858Z,99798.00
2023-04-19T23:44:08.743Z,99791.00
2023-04-19T23:46:36.893Z,99795.00
2023-04-19T23:49:07.363Z,99794.00
2023-04-19T23:51:36.231Z,99788.00
2023-04-19T23:54:04.315Z,99788.00
2023-04-19T23:56:32.222Z,99793.00
2023-04-19T23:59:00.149Z,99786.00
